Latest Coastal Weather Observations for Geraldton Airport

IDW60701

Issued at 10:02 am WST Friday 29 April 2016 (issued every 10 minutes, with the page automatically refreshed every 10 minutes)

About coastal observations | Map of coastal stations | Coastal observations for WA | Marine services | Other Formats
Station Details ID: 008315 Name: GERALDTON AIRPORT Lat: -28.80 Lon: 114.70 Height: 29.7 m
Data from the previous 72 hours. | See also: Recent months at Geraldton Airport
Date/Time
WST
Temp

°C
Wind Pressure Rain
since 9am
mm
Weather Cloud Vis
km
Sea
Height
m
Swell
Dir
 
Speed
knots
Gust
knots
hPa Trend Height
m
Period
s
Dir
29/10:00am 21.6 SW 8 11 1018.5 - 0.0 - - 10 - - - -
29/09:30am 20.5 CALM 0 2 1018.7 - 0.0 - - 10 - - - -
29/09:00am 19.0 NNE 6 7 1018.8 - 1.4 - Mostly clear 10 - - - -
29/08:30am 18.4 N 5 6 1018.7 - 1.4 - Partly cloudy 10 - - - -
29/08:00am 17.4 NNE 7 8 1018.4 - 1.4 - Partly cloudy 10 - - - -
29/07:30am 16.7 NNE 5 7 1018.1 - 1.4 - Partly cloudy 10 - - - -
29/07:00am 16.5 NNE 5 6 1018.0 - 1.4 - Partly cloudy 10 - - - -
29/06:30am 16.2 NNE 5 6 1017.8 - 1.4 - Partly cloudy 10 - - - -
29/06:00am 16.2 NNE 6 7 1017.4 - 1.4 - Mostly cloudy 10 - - - -
29/05:30am 16.5 NNE 6 6 1017.2 - 1.4 - Partly cloudy 10 - - - -
29/05:00am 17.0 NE 4 6 1017.0 - 1.4 - Partly cloudy 10 - - - -
29/04:30am 17.1 ENE 5 6 1017.1 - 1.4 - Partly cloudy 10 - - - -
29/04:00am 17.2 NE 5 6 1017.1 - 1.4 - Partly cloudy 10 - - - -
29/03:30am 17.3 CALM 0 0 1017.3 - 1.4 - Partly cloudy 10 - - - -
29/03:21am 17.3 CALM 0 3 1017.4 - 1.4 - Partly cloudy 10 - - - -
29/03:17am 17.3 WNW 1 4 1017.4 - 1.4 - Partly cloudy 9 - - - -
29/03:10am 17.3 W 4 5 1017.4 - 1.2 - Partly cloudy 6 - - - -
29/03:00am 17.2 WNW 4 6 1017.3 - 1.0 - Cloudy 7 - - - -
29/02:58am 17.1 NW 4 6 1017.4 - 0.8 - Partly cloudy 7 - - - -
29/02:56am 17.0 NW 4 5 1017.4 - 0.8 - Partly cloudy 8 - - - -
29/02:30am 16.9 SW 3 6 1017.5 - 0.6 - Partly cloudy 6 - - - -
29/02:23am 17.0 SSW 5 7 1017.5 - 0.6 - Partly cloudy 6 - - - -
29/02:00am 16.2 NW 5 11 1017.4 - 0.0 - Partly cloudy 10 - - - -
29/01:30am 15.6 NNW 3 4 1017.4 - 0.0 - Partly cloudy 10 - - - -
29/01:00am 16.4 WNW 6 6 1017.6 - 0.0 - Partly cloudy 10 - - - -
29/12:30am 17.5 W 6 7 1017.7 - 0.0 - Partly cloudy 10 - - - -
29/12:00am 18.0 WSW 6 9 1017.7 - 0.0 - Cloudy 10 - - - -
 
Date/Time
WST
Temp

°C
Wind Pressure Rain
since 9am
mm
Weather Cloud Vis
km
Sea
Height
m
Swell
Dir
 
Speed
knots
Gust
knots
hPa Trend Height
m
Period
s
Dir
28/11:30pm 17.9 SW 13 16 1017.7 - 0.0 - Partly cloudy 10 - - - -
28/11:00pm 15.9 W 3 5 1017.8 - 0.0 - Partly cloudy 10 - - - -
28/10:30pm 15.3 WNW 2 4 1017.9 - 0.0 - Partly cloudy 10 - - - -
28/10:00pm 15.5 N 1 3 1017.9 - 0.0 - - 10 - - - -
28/09:30pm 16.5 NNW 2 4 1018.1 - 0.0 - Partly cloudy 10 - - - -
28/09:00pm 16.9 CALM 0 1 1018.1 - 0.0 - Mostly clear 10 - - - -
28/08:30pm 17.8 N 3 4 1018.0 - 0.0 - Partly cloudy 10 - - - -
28/08:00pm 17.8 W 1 4 1017.9 - 0.0 - Partly cloudy 10 - - - -
28/07:30pm 16.9 W 2 5 1017.9 - 0.0 - Partly cloudy 10 - - - -
28/07:00pm 17.1 WSW 5 6 1017.7 - 0.0 - - 10 - - - -
28/06:30pm 17.6 WSW 7 9 1017.6 - 0.0 - - 10 - - - -
28/06:00pm 18.3 WSW 7 11 1017.3 - 0.0 - Partly cloudy 10 - - - -
28/05:30pm 18.6 SW 7 9 1017.3 - 0.0 - - 10 - - - -
28/05:00pm 19.3 SW 10 13 1017.2 - 0.0 - Partly cloudy 10 - - - -
28/04:30pm 20.2 WSW 10 15 1017.0 - 0.0 - Partly cloudy 10 - - - -
28/04:00pm 21.2 SW 11 15 1017.0 - 0.0 - Mostly clear 10 - - - -
28/03:30pm 20.2 WSW 11 17 1017.0 - 0.0 - Partly cloudy 10 - - - -
28/03:00pm 20.2 SW 13 16 1016.8 - 0.0 - Partly cloudy 10 - - - -
28/02:30pm 21.1 SW 12 16 1016.7 - 0.0 - - 10 - - - -
28/02:00pm 21.2 SW 13 15 1016.7 - 0.0 - Partly cloudy 10 - - - -
28/01:30pm 21.4 SW 11 17 1017.0 - 0.0 - Partly cloudy 10 - - - -
28/01:00pm 19.9 WSW 9 12 1017.5 - 0.0 - Partly cloudy 10 - - - -
28/12:30pm 20.2 WSW 13 16 1017.6 - 0.0 - Partly cloudy 10 - - - -
28/12:00pm 20.7 WSW 9 13 1017.7 - 0.0 - Mostly clear 10 - - - -
28/11:30am 20.4 W 11 15 1018.0 - 0.0 - Partly cloudy 10 - - - -
28/11:00am 20.2 SW 5 10 1018.0 - 0.0 - Partly cloudy 10 - - - -
28/10:30am 20.1 WNW 2 5 1018.4 - 0.0 - Mostly clear 10 - - - -
28/10:00am 19.9 N 4 6 1018.6 - 0.0 - Mostly clear 10 - - - -
28/09:30am 18.3 N 7 9 1018.7 - 0.0 - Mostly clear 10 - - - -
28/09:00am 17.1 NNE 8 10 1018.7 - 0.0 - Mostly clear 10 - - - -
28/08:30am 15.8 NNE 8 9 1018.4 - 0.0 - Mostly clear 10 - - - -
28/08:00am 14.4 NNE 8 9 1018.0 - 0.0 - Mostly clear 10 - - - -
28/07:30am 13.7 NNE 8 10 1017.7 - 0.0 - Mostly clear 10 - - - -
28/07:00am 13.6 NNE 7 9 1017.7 - 0.0 - Partly cloudy 10 - - - -
28/06:30am 13.0 E 8 9 1017.5 - 0.0 - Partly cloudy 10 - - - -
28/06:00am 13.0 SW 3 6 1017.6 - 0.0 - Cloudy 10 - - - -
28/05:30am 12.5 NNE 5 6 1017.1 - 0.0 - Partly cloudy 10 - - - -
28/05:00am 12.1 NNE 6 9 1016.7 - 0.0 - - 10 - - - -
28/04:30am 12.3 NE 8 10 1016.7 - 0.0 - - 10 - - - -
28/04:00am 12.0 NE 7 8 1016.7 - 0.0 - - 10 - - - -
28/03:30am 12.6 NNE 7 8 1016.7 - 0.0 - - 10 - - - -
28/03:00am 12.2 NNE 7 8 1016.4 - 0.0 - - 10 - - - -
28/02:30am 12.5 NNE 6 7 1016.6 - 0.0 - - 10 - - - -
28/02:00am 12.3 NE 6 6 1016.7 - 0.0 - - 10 - - - -
28/01:30am 12.5 NE 5 6 1016.6 - 0.0 - - 10 - - - -
28/01:00am 12.5 NE 5 6 1016.6 - 0.0 - - 10 - - - -
28/12:30am 13.1 NNE 6 6 1016.9 - 0.0 - - 10 - - - -
28/12:00am 13.2 CALM 0 0 1016.9 - 0.0 - - 10 - - - -
 
Date/Time
WST
Temp

°C
Wind Pressure Rain
since 9am
mm
Weather Cloud Vis
km
Sea
Height
m
Swell
Dir
 
Speed
knots
Gust
knots
hPa Trend Height
m
Period
s
Dir
27/11:30pm 13.3 SE 4 4 1017.1 - 0.0 - - 10 - - - -
27/11:00pm 13.9 ESE 3 4 1017.2 - 0.0 - - 10 - - - -
27/10:30pm 14.2 ESE 4 5 1017.5 - 0.0 - - 10 - - - -
27/10:00pm 14.3 ESE 6 7 1017.6 - 0.0 - Partly cloudy 10 - - - -
27/09:30pm 14.7 SE 5 6 1017.6 - 0.0 - Partly cloudy 10 - - - -
27/09:00pm 15.6 SE 7 9 1017.5 - 0.0 - - 10 - - - -
27/08:30pm 16.3 SSE 7 9 1017.5 - 0.0 - Partly cloudy 10 - - - -
27/08:00pm 16.3 SSE 6 6 1017.5 - 0.0 - Partly cloudy 10 - - - -
27/07:30pm 16.2 S 5 6 1017.3 - 0.0 - Partly cloudy 10 - - - -
27/07:00pm 17.0 S 5 6 1017.1 - 0.0 - Partly cloudy 10 - - - -
27/06:30pm 17.3 SE 6 7 1016.7 - 0.0 - Partly cloudy 10 - - - -
27/06:00pm 17.4 SSE 6 8 1016.5 - 0.0 - Mostly cloudy 10 - - - -
27/05:30pm 18.1 S 9 12 1016.6 - 0.0 - Partly cloudy 10 - - - -
27/05:00pm 18.4 S 10 13 1016.6 - 0.0 - Cloudy 10 - - - -
27/04:30pm 18.7 SW 13 15 1016.5 - 0.0 - Cloudy 10 - - - -
27/04:00pm 19.0 SW 12 18 1016.4 - 0.0 - Cloudy 10 - - - -
27/03:30pm 19.0 SSW 8 12 1016.3 - 0.0 - Cloudy 10 - - - -
27/03:00pm 18.9 SW 8 10 1016.2 - 0.0 - Cloudy 10 - - - -
27/02:30pm 18.8 SW 11 13 1016.3 - 0.0 - Partly cloudy 10 - - - -
27/02:00pm 19.2 SSW 11 14 1016.4 - 0.0 - Partly cloudy 10 - - - -
27/01:30pm 19.6 WSW 5 10 1016.6 - 0.0 - Partly cloudy 10 - - - -
27/01:00pm 18.8 SE 8 11 1016.9 - 0.0 - Partly cloudy 10 - - - -
27/12:30pm 19.8 WSW 4 8 1016.9 - 0.0 - Partly cloudy 10 - - - -
27/12:00pm 20.5 N 5 7 1017.1 - 0.0 - Mostly clear 10 - - - -
27/11:30am 20.1 NE 5 7 1017.6 - 0.0 - Partly cloudy 10 - - - -
27/11:00am 20.2 E 5 8 1018.1 - 0.0 - Partly cloudy 10 - - - -
27/10:30am 19.2 E 7 11 1018.4 - 0.0 - - 10 - - - -
27/10:00am 18.9 E 7 11 1018.5 - 0.0 - - 10 - - - -
27/09:30am 18.5 E 9 11 1018.5 - 0.0 - - 10 - - - -
27/09:00am 17.9 E 10 12 1018.4 - 0.2 - Mostly clear 10 - - - -
27/08:30am 16.6 SE 9 11 1018.5 - 0.2 - Partly cloudy 10 - - - -
27/08:00am 16.9 NE 6 7 1018.2 - 0.2 - Partly cloudy 10 - - - -
27/07:30am 16.0 NNE 7 8 1017.8 - 0.2 - Partly cloudy 10 - - - -
27/07:00am 15.3 NNE 8 9 1017.5 - 0.2 - Partly cloudy 10 - - - -
27/06:30am 15.4 NNE 7 9 1017.4 - 0.2 - Partly cloudy 10 - - - -
27/06:00am 15.8 NE 6 7 1017.2 - 0.2 - Cloudy 10 - - - -
27/05:30am 16.1 NE 5 6 1017.5 - 0.2 - Partly cloudy 10 - - - -
27/05:00am 16.2 ENE 5 5 1017.3 - 0.2 - Partly cloudy 10 - - - -
27/04:30am 16.2 ENE 6 6 1017.0 - 0.2 - Partly cloudy 10 - - - -
27/04:00am 16.4 NNE 4 5 1017.0 - 0.2 - Partly cloudy 10 - - - -
27/03:30am 16.5 ENE 4 5 1016.9 - 0.2 - Partly cloudy 10 - - - -
27/03:00am 16.7 ENE 3 4 1016.7 - 0.2 - Cloudy 10 - - - -
27/02:30am 16.7 ESE 3 4 1016.8 - 0.2 - Partly cloudy 10 - - - -
27/02:00am 16.7 E 3 5 1016.5 - 0.2 - Partly cloudy 10 - - - -
27/01:30am 16.8 ESE 5 6 1016.4 - 0.2 - Partly cloudy 10 - - - -
27/01:00am 16.9 E 5 6 1016.5 - 0.2 - Partly cloudy 10 - - - -
27/12:30am 17.1 ESE 7 8 1016.2 - 0.2 - Partly cloudy 10 - - - -
27/12:00am 17.4 SE 6 7 1016.3 - 0.2 - Cloudy 10 - - - -
 
Date/Time
WST
Temp

°C
Wind Pressure Rain
since 9am
mm
Weather Cloud Vis
km
Sea
Height
m
Swell
Dir
 
Speed
knots
Gust
knots
hPa Trend Height
m
Period
s
Dir
26/11:30pm 17.6 SE 5 8 1016.7 - 0.2 - Partly cloudy 10 - - - -
26/11:00pm 18.0 S 6 8 1016.6 - 0.2 - Partly cloudy 10 - - - -
26/10:30pm 17.7 SSE 3 5 1016.6 - 0.2 - Partly cloudy 10 - - - -
26/10:00pm 18.2 S 5 6 1016.4 - 0.2 - Partly cloudy 10 - - - -
26/09:30pm 18.2 S 5 6 1016.3 - 0.2 - Partly cloudy 10 - - - -
26/09:00pm 18.5 S 5 7 1016.2 - 0.2 - Cloudy 10 - - - -
26/08:30pm 17.9 S 4 5 1016.3 - 0.2 - Partly cloudy 10 - - - -
26/08:00pm 18.2 S 6 7 1016.0 - 0.2 - Partly cloudy 10 - - - -
26/07:30pm 18.1 SW 6 9 1015.8 - 0.2 - Partly cloudy 10 - - - -
26/07:00pm 18.5 S 7 9 1015.5 - 0.2 - Partly cloudy 10 - - - -
26/06:30pm 18.4 S 8 11 1015.1 - 0.2 - - 10 - - - -
26/06:00pm 18.9 SSW 10 16 1014.7 - 0.2 - Mostly clear 10 - - - -
26/05:30pm 19.6 SSW 14 19 1014.6 - 0.2 - Partly cloudy 10 - - - -
26/05:00pm 20.3 SSW 14 20 1014.5 - 0.2 - Partly cloudy 10 - - - -
26/04:30pm 20.4 SSW 17 22 1014.3 - 0.2 - Partly cloudy 10 - - - -
26/04:00pm 21.1 W 11 14 1014.3 - 0.2 - Partly cloudy 10 - - - -
26/03:30pm 22.4 WSW 15 20 1014.0 - 0.2 - - 10 - - - -
26/03:00pm 22.2 W 18 22 1014.0 - 0.2 - Mostly clear 10 - - - -
26/02:30pm 22.7 W 18 24 1014.1 - 0.2 - Partly cloudy 10 - - - -
26/02:00pm 22.5 W 19 24 1014.1 - 0.2 - Partly cloudy 10 - - - -
26/01:30pm 22.7 WSW 17 23 1014.0 - 0.2 - Partly cloudy 10 - - - -
26/01:00pm 22.5 WSW 19 23 1014.4 - 0.2 - Partly cloudy 10 - - - -
26/12:30pm 22.6 WSW 18 24 1014.6 - 0.2 - Partly cloudy 10 - - - -
26/12:00pm 21.9 WSW 17 23 1014.6 - 0.2 - Cloudy 10 - - - -
26/11:30am 21.0 W 14 21 1015.0 - 0.2 - Partly cloudy 10 - - - -
26/11:29am 20.9 W 15 25 1015.0 - 0.2 - Partly cloudy 10 - - - -
26/11:00am 21.1 W 17 24 1014.8 - 0.0 - Partly cloudy 10 - - - -
26/10:30am 21.2 W 18 24 1014.8 - 0.0 - Partly cloudy 10 - - - -

Other Formats:

Comma delimited format used in spreadsheet applications
http://www.bom.gov.au/fwo/IDW60701/IDW60701.94403.axf

JavaScript Object Notation format (JSON) in row-major order
http://www.bom.gov.au/fwo/IDW60701/IDW60701.94403.json